createdAt,value
2019-03-04T00:02:29.248Z,13.31
2019-03-04T00:05:08.057Z,13.32
2019-03-04T00:13:40.561Z,13.62
2019-03-04T00:16:13.830Z,13.42
2019-03-04T00:18:47.172Z,13.59
2019-03-04T00:21:19.405Z,13.54
2019-03-04T00:23:51.414Z,13.61
2019-03-04T00:26:23.565Z,13.56
2019-03-04T00:28:56.819Z,13.43
2019-03-04T00:31:28.977Z,13.58
2019-03-04T00:34:04.357Z,13.78
2019-03-04T00:36:39.169Z,13.87
2019-03-04T00:39:12.347Z,13.95
2019-03-04T00:41:44.381Z,13.59
2019-03-04T00:44:16.296Z,13.56
2019-03-04T00:46:48.260Z,13.52
2019-03-04T00:49:20.329Z,13.48
2019-03-04T00:51:52.562Z,13.35
2019-03-04T00:54:24.405Z,13.35
2019-03-04T00:56:56.350Z,13.35
2019-03-04T00:59:28.665Z,13.37
2019-03-04T01:02:00.676Z,13.41
2019-03-04T01:04:35.706Z,13.39
2019-03-04T01:07:07.679Z,13.34
2019-03-04T01:09:39.665Z,13.53
2019-03-04T01:12:11.542Z,13.40
2019-03-04T01:14:43.420Z,13.51
2019-03-04T01:17:15.224Z,13.38
2019-03-04T01:19:47.066Z,13.31
2019-03-04T01:22:20.303Z,13.36
2019-03-04T01:24:52.204Z,13.13
2019-03-04T01:27:24.141Z,13.33
2019-03-04T01:29:57.046Z,13.29
2019-03-04T01:32:32.135Z,13.29
2019-03-04T01:35:04.066Z,13.27
2019-03-04T01:37:39.530Z,13.27
2019-03-04T01:40:14.354Z,13.14
2019-03-04T01:42:46.173Z,13.13
2019-03-04T01:45:18.422Z,12.94
2019-03-04T01:47:50.311Z,12.91
2019-03-04T01:50:22.151Z,13.20
2019-03-04T01:52:53.995Z,13.28
2019-03-04T01:55:25.864Z,12.92
2019-03-04T01:57:57.680Z,13.24
2019-03-04T02:00:29.722Z,13.28
2019-03-04T02:03:01.654Z,13.27
2019-03-04T02:05:33.561Z,13.17
2019-03-04T02:08:06.749Z,13.21
2019-03-04T02:10:38.657Z,13.13
2019-03-04T02:13:10.879Z,13.07
2019-03-04T02:15:42.713Z,13.03
2019-03-04T02:18:14.621Z,13.00
2019-03-04T02:20:47.103Z,13.07
2019-03-04T02:23:18.945Z,13.05
2019-03-04T02:26:20.576Z,12.95
2019-03-04T02:28:52.650Z,12.94
2019-03-04T02:31:24.507Z,12.95
2019-03-04T02:33:56.468Z,12.93
2019-03-04T02:36:28.264Z,12.95
2019-03-04T02:39:00.112Z,12.96
2019-03-04T02:41:36.063Z,13.01
2019-03-04T02:44:07.999Z,13.00
2019-03-04T02:46:40.222Z,13.01
2019-03-04T02:49:12.192Z,13.03
2019-03-04T02:51:44.077Z,13.08
2019-03-04T02:54:17.292Z,12.98
2019-03-04T02:56:49.458Z,12.89
2019-03-04T02:59:21.334Z,12.96
2019-03-04T03:01:53.158Z,12.93
2019-03-04T03:04:25.114Z,12.65
2019-03-04T03:06:57.040Z,12.90
2019-03-04T03:09:29.224Z,12.99
2019-03-04T03:12:02.612Z,12.96
2019-03-04T03:14:34.403Z,12.88
2019-03-04T03:17:06.556Z,12.85
2019-03-04T03:19:41.729Z,12.85
2019-03-04T03:22:13.952Z,12.75
2019-03-04T03:24:46.026Z,12.78
2019-03-04T03:27:17.833Z,12.83
2019-03-04T03:29:52.078Z,12.76
2019-03-04T03:32:26.715Z,12.70
2019-03-04T03:34:59.556Z,12.67
2019-03-04T03:37:32.733Z,12.63
2019-03-04T03:40:07.082Z,12.66
2019-03-04T03:42:38.926Z,12.56
2019-03-04T03:45:11.055Z,12.49
2019-03-04T03:47:42.872Z,12.40
2019-03-04T03:50:15.666Z,12.35
2019-03-04T03:52:50.643Z,12.30
2019-03-04T03:55:22.541Z,12.32
2019-03-04T03:57:54.419Z,12.36
2019-03-04T04:00:27.931Z,12.34
2019-03-04T04:02:59.865Z,12.31
2019-03-04T04:05:35.036Z,12.29
2019-03-04T04:08:06.955Z,12.27
2019-03-04T04:10:38.811Z,12.23
2019-03-04T04:13:10.693Z,12.26
2019-03-04T04:15:42.706Z,12.23
2019-03-04T04:18:14.680Z,12.22
2019-03-04T04:20:47.333Z,12.22
2019-03-04T04:23:19.139Z,12.17
2019-03-04T04:25:51.586Z,12.13
2019-03-04T04:28:24.630Z,12.12
2019-03-04T04:30:56.816Z,12.16
2019-03-04T04:33:29.025Z,12.20
2019-03-04T04:36:03.206Z,12.20
2019-03-04T04:38:35.093Z,12.19
2019-03-04T04:41:06.974Z,12.17
2019-03-04T04:43:38.920Z,12.13
2019-03-04T04:46:10.900Z,12.09
2019-03-04T04:48:42.700Z,12.18
2019-03-04T04:51:14.555Z,12.18
2019-03-04T04:53:46.354Z,12.05
2019-03-04T04:56:18.198Z,12.00
2019-03-04T04:58:50.037Z,12.00
2019-03-04T05:01:21.962Z,11.90
2019-03-04T05:03:54.243Z,11.84
2019-03-04T05:06:26.118Z,11.80
2019-03-04T05:08:58.316Z,11.85
2019-03-04T05:11:30.118Z,11.76
2019-03-04T05:14:01.979Z,11.74
2019-03-04T05:16:33.791Z,11.72
2019-03-04T05:19:05.631Z,11.74
2019-03-04T05:21:37.521Z,11.72
2019-03-04T05:24:09.630Z,11.59
2019-03-04T05:26:41.598Z,11.58
2019-03-04T05:29:15.061Z,11.45
2019-03-04T05:31:48.105Z,11.34
2019-03-04T05:34:19.890Z,11.21
2019-03-04T05:36:51.728Z,11.26
2019-03-04T05:39:24.806Z,11.22
2019-03-04T05:41:56.687Z,11.24
2019-03-04T05:44:28.529Z,11.25
2019-03-04T05:47:00.334Z,11.27
2019-03-04T05:49:32.562Z,11.25
2019-03-04T05:52:05.340Z,11.26
2019-03-04T05:54:37.304Z,11.22
2019-03-04T05:57:09.127Z,11.14
2019-03-04T05:59:40.957Z,11.11
2019-03-04T06:02:13.171Z,10.98
2019-03-04T06:04:46.759Z,11.00
2019-03-04T06:07:36.515Z,11.03
2019-03-04T06:10:11.301Z,11.08
2019-03-04T06:12:43.944Z,10.98
2019-03-04T06:15:17.462Z,11.01
2019-03-04T06:17:51.359Z,11.07
2019-03-04T06:20:23.214Z,11.11
2019-03-04T06:22:56.829Z,11.06
2019-03-04T06:25:29.296Z,11.05
2019-03-04T06:28:03.895Z,11.03
2019-03-04T06:30:35.794Z,11.10
2019-03-04T06:33:07.603Z,11.17
2019-03-04T06:35:39.571Z,11.25
2019-03-04T06:38:16.633Z,11.22
2019-03-04T06:40:48.482Z,11.23
2019-03-04T06:43:20.773Z,11.14
2019-03-04T06:45:52.672Z,11.08
2019-03-04T06:48:24.593Z,10.97
2019-03-04T06:50:58.187Z,10.88
2019-03-04T06:53:36.934Z,10.81
2019-03-04T06:56:46.478Z,10.79
2019-03-04T07:00:20.283Z,10.64
2019-03-04T07:02:52.186Z,10.70
2019-03-04T07:05:50.060Z,10.61
2019-03-04T07:09:09.803Z,10.61
2019-03-04T07:11:42.944Z,10.58
2019-03-04T07:14:15.174Z,10.60
2019-03-04T07:16:47.839Z,10.57
2019-03-04T07:19:24.282Z,10.48
2019-03-04T07:21:56.118Z,10.44
2019-03-04T07:24:27.963Z,10.45
2019-03-04T07:26:59.862Z,10.48
2019-03-04T07:29:31.779Z,10.56
2019-03-04T07:32:03.899Z,10.66
2019-03-04T07:34:35.757Z,10.56
2019-03-04T07:37:09.293Z,10.58
2019-03-04T07:39:44.193Z,10.64
2019-03-04T07:42:15.985Z,10.71
2019-03-04T07:44:47.852Z,10.75
2019-03-04T07:47:19.698Z,10.88
2019-03-04T07:49:52.040Z,10.96
2019-03-04T07:52:23.911Z,11.03
2019-03-04T07:54:55.728Z,10.96
2019-03-04T07:57:27.572Z,11.05
2019-03-04T08:00:00.970Z,11.14
2019-03-04T08:02:33.178Z,11.26
2019-03-04T08:05:05.806Z,11.36
2019-03-04T08:07:47.794Z,11.56
2019-03-04T08:10:31.083Z,11.83
2019-03-04T08:13:10.299Z,11.81
2019-03-04T08:15:47.687Z,11.99
2019-03-04T08:18:19.637Z,12.09
2019-03-04T08:20:53.010Z,12.32
2019-03-04T08:23:25.269Z,12.44
2019-03-04T08:25:57.453Z,12.73
2019-03-04T08:28:29.496Z,13.15
2019-03-04T08:31:01.314Z,13.42
2019-03-04T08:33:34.008Z,13.51
2019-03-04T08:36:06.012Z,13.84
2019-03-04T08:38:37.853Z,14.39
2019-03-04T08:41:09.651Z,15.54
2019-03-04T08:43:41.957Z,17.24
2019-03-04T08:46:14.313Z,18.44
2019-03-04T08:48:46.203Z,18.79
2019-03-04T08:51:18.588Z,19.72
2019-03-04T08:53:50.503Z,21.38
2019-03-04T08:56:22.374Z,23.53
2019-03-04T08:59:03.277Z,24.75
2019-03-04T09:01:35.130Z,24.85
2019-03-04T09:04:08.577Z,26.03
2019-03-04T09:06:42.279Z,25.05
2019-03-04T09:09:14.259Z,24.84
2019-03-04T09:11:51.662Z,25.39
2019-03-04T09:14:23.431Z,24.62
2019-03-04T09:16:55.748Z,25.80
2019-03-04T09:19:27.858Z,26.59
2019-03-04T09:21:59.656Z,27.42
2019-03-04T09:24:31.742Z,25.88
2019-03-04T09:27:03.800Z,27.11
2019-03-04T09:29:35.653Z,26.85
2019-03-04T09:32:07.599Z,25.38
2019-03-04T09:34:40.463Z,25.72
2019-03-04T09:37:12.682Z,26.73
2019-03-04T09:39:44.557Z,25.92
2019-03-04T09:42:28.131Z,25.28
2019-03-04T09:44:59.925Z,24.68
2019-03-04T09:47:31.782Z,23.83
2019-03-04T09:50:04.868Z,23.22
2019-03-04T09:52:36.682Z,21.48
2019-03-04T09:55:09.453Z,19.36
2019-03-04T09:57:41.432Z,18.80
2019-03-04T10:00:31.938Z,19.97
2019-03-04T10:03:20.944Z,18.90
2019-03-04T10:06:12.298Z,18.93
2019-03-04T10:09:28.685Z,21.77
2019-03-04T10:12:19.892Z,23.48
2019-03-04T10:15:35.610Z,26.42
2019-03-04T10:18:19.163Z,22.82
2019-03-04T10:21:34.890Z,21.09
2019-03-04T10:24:43.250Z,19.29
2019-03-04T10:27:57.461Z,17.48
2019-03-04T10:31:03.884Z,16.80
2019-03-04T10:34:15.799Z,16.45
2019-03-04T10:36:59.010Z,17.11
2019-03-04T10:40:12.409Z,18.23
2019-03-04T10:43:08.452Z,19.39
2019-03-04T10:46:42.428Z,21.67
2019-03-04T10:49:14.307Z,22.28
2019-03-04T10:51:46.115Z,23.41
2019-03-04T10:54:18.116Z,25.44
2019-03-04T10:56:51.052Z,27.93
2019-03-04T10:59:22.856Z,28.03
2019-03-04T11:01:54.720Z,27.70
2019-03-04T11:04:26.692Z,29.27
2019-03-04T11:06:58.543Z,28.04
2019-03-04T11:09:30.452Z,23.43
2019-03-04T11:12:02.264Z,22.61
2019-03-04T11:14:34.297Z,21.03
2019-03-04T11:17:07.092Z,21.22
2019-03-04T11:19:39.060Z,22.83
2019-03-04T11:22:11.098Z,22.38
2019-03-04T11:24:43.060Z,22.77
2019-03-04T11:27:14.896Z,23.15
2019-03-04T11:29:46.688Z,22.04
2019-03-04T11:32:18.534Z,21.31
2019-03-04T11:34:50.346Z,20.40
2019-03-04T11:37:22.177Z,18.91
2019-03-04T11:40:06.277Z,19.51
2019-03-04T11:42:38.075Z,20.39
2019-03-04T11:45:12.800Z,21.42
2019-03-04T11:47:44.664Z,21.28
2019-03-04T11:50:18.216Z,19.98
2019-03-04T11:52:50.227Z,20.46
2019-03-04T11:55:22.395Z,19.72
2019-03-04T11:57:54.254Z,18.85
2019-03-04T12:00:33.461Z,18.65
2019-03-04T12:03:05.639Z,18.14
2019-03-04T12:05:37.468Z,18.06
2019-03-04T12:08:09.345Z,18.01
2019-03-04T12:10:41.222Z,17.44
2019-03-04T12:13:16.042Z,16.84
2019-03-04T12:15:47.860Z,16.91
2019-03-04T12:18:21.570Z,16.81
2019-03-04T12:20:53.559Z,17.83
2019-03-04T12:23:27.125Z,17.75
2019-03-04T12:25:59.460Z,17.54
2019-03-04T12:28:31.760Z,17.50
2019-03-04T12:31:04.820Z,17.34
2019-03-04T12:33:38.455Z,18.08
2019-03-04T12:36:10.680Z,18.47
2019-03-04T12:38:42.599Z,18.77
2019-03-04T12:41:15.996Z,19.31
2019-03-04T12:43:47.837Z,18.82
2019-03-04T12:46:20.024Z,18.34
2019-03-04T12:48:52.180Z,18.38
2019-03-04T12:51:23.987Z,19.05
2019-03-04T12:53:55.945Z,17.87
2019-03-04T12:56:27.738Z,17.82
2019-03-04T12:58:59.577Z,17.41
2019-03-04T13:01:31.431Z,17.39
2019-03-04T13:04:04.286Z,17.00
2019-03-04T13:06:36.209Z,17.24
2019-03-04T13:09:14.644Z,16.98
2019-03-04T13:11:41.906Z,16.71
2019-03-04T13:14:13.962Z,16.40
2019-03-04T13:16:45.823Z,16.90
2019-03-04T13:19:18.406Z,16.78
2019-03-04T13:21:50.263Z,16.96
2019-03-04T13:24:22.167Z,17.07
2019-03-04T13:26:54.014Z,17.35
2019-03-04T13:29:25.849Z,17.22
2019-03-04T13:31:57.695Z,17.64
2019-03-04T13:34:29.607Z,17.31
2019-03-04T13:37:01.466Z,17.38
2019-03-04T13:39:33.472Z,17.77
2019-03-04T13:42:05.387Z,17.80
2019-03-04T13:44:37.201Z,18.35
2019-03-04T13:47:09.273Z,18.12
2019-03-04T13:49:43.000Z,17.91
2019-03-04T13:52:15.029Z,18.18
2019-03-04T13:54:48.419Z,18.35
2019-03-04T13:57:20.406Z,18.38
2019-03-04T13:59:52.310Z,18.79
2019-03-04T14:02:24.111Z,18.63
2019-03-04T14:04:55.927Z,18.55
2019-03-04T14:07:27.827Z,18.94
2019-03-04T14:09:59.822Z,18.85
2019-03-04T14:12:31.825Z,18.24
2019-03-04T14:15:03.783Z,18.28
2019-03-04T14:17:37.092Z,18.08
2019-03-04T14:20:10.011Z,18.00
2019-03-04T14:22:41.899Z,18.21
2019-03-04T14:25:15.639Z,18.04
2019-03-04T14:27:47.534Z,18.21
2019-03-04T14:30:19.384Z,17.18
2019-03-04T14:32:51.365Z,17.52
2019-03-04T14:35:23.427Z,17.87
2019-03-04T14:37:55.269Z,17.94
2019-03-04T14:40:27.098Z,18.17
2019-03-04T14:42:58.940Z,18.41
2019-03-04T14:45:30.781Z,17.61
2019-03-04T14:48:05.573Z,17.44
2019-03-04T14:50:37.488Z,17.46
2019-03-04T14:53:09.292Z,17.25
2019-03-04T14:55:41.303Z,17.20
2019-03-04T14:58:13.141Z,17.04
2019-03-04T15:00:46.864Z,17.52
2019-03-04T15:03:23.404Z,17.84
2019-03-04T15:05:52.840Z,17.38
2019-03-04T15:08:24.779Z,17.46
2019-03-04T15:10:56.707Z,17.53
2019-03-04T15:13:28.950Z,17.32
2019-03-04T15:16:04.531Z,17.26
2019-03-04T15:18:37.330Z,17.09
2019-03-04T15:21:09.803Z,17.43
2019-03-04T15:23:41.963Z,17.20
2019-03-04T15:26:14.795Z,17.23
2019-03-04T15:28:46.644Z,17.33
2019-03-04T15:31:18.675Z,17.27
2019-03-04T15:33:53.246Z,17.24
2019-03-04T15:36:25.519Z,16.88
2019-03-04T15:38:57.430Z,16.64
2019-03-04T15:41:29.306Z,16.12
2019-03-04T15:44:02.648Z,15.83
2019-03-04T15:46:34.546Z,15.81
2019-03-04T15:49:06.540Z,16.10
2019-03-04T15:51:38.431Z,15.74
2019-03-04T15:54:10.459Z,15.84
2019-03-04T15:56:42.392Z,15.71
2019-03-04T15:59:17.291Z,15.47
2019-03-04T16:01:49.448Z,15.55
2019-03-04T16:04:21.435Z,15.83
2019-03-04T16:06:53.368Z,16.00
2019-03-04T16:09:25.698Z,15.72
2019-03-04T16:11:57.897Z,15.93
2019-03-04T16:14:29.904Z,15.81
2019-03-04T16:17:01.885Z,15.61
2019-03-04T16:19:33.851Z,15.51
2019-03-04T16:22:06.280Z,15.31
2019-03-04T16:24:38.256Z,15.18
2019-03-04T16:27:12.468Z,15.18
2019-03-04T16:29:44.595Z,15.43
2019-03-04T16:32:16.555Z,15.35
2019-03-04T16:34:49.473Z,15.23
2019-03-04T16:37:22.499Z,15.21
2019-03-04T16:39:54.425Z,15.29
2019-03-04T16:42:26.308Z,15.39
2019-03-04T16:44:58.247Z,15.43
2019-03-04T16:47:31.246Z,15.13
2019-03-04T16:50:04.399Z,15.15
2019-03-04T16:52:36.324Z,15.12
2019-03-04T16:55:12.079Z,15.14
2019-03-04T16:57:46.397Z,15.18
2019-03-04T17:00:19.062Z,14.96
2019-03-04T17:02:51.340Z,14.84
2019-03-04T17:05:23.341Z,14.87
2019-03-04T17:07:55.212Z,14.89
2019-03-04T17:21:33.573Z,14.45
2019-03-04T17:24:07.834Z,14.46
2019-03-04T17:26:39.864Z,14.49
2019-03-04T17:29:11.766Z,14.38
2019-03-04T17:31:44.272Z,14.33
2019-03-04T17:34:16.262Z,14.32
2019-03-04T17:36:48.169Z,14.17
2019-03-04T17:39:20.059Z,14.19
2019-03-04T17:41:52.017Z,14.31
2019-03-04T17:44:25.281Z,14.24
2019-03-04T17:59:56.810Z,14.03
2019-03-04T18:02:28.524Z,13.89
2019-03-04T18:05:00.426Z,13.69
2019-03-04T18:07:33.487Z,13.88
2019-03-04T18:10:10.119Z,13.85
2019-03-04T18:12:42.575Z,13.87
2019-03-04T18:27:02.657Z,14.01
2019-03-04T18:30:11.466Z,13.82
2019-03-04T18:33:33.274Z,13.67
2019-03-04T18:36:45.209Z,13.67
2019-03-04T18:39:29.517Z,13.60
2019-03-04T18:42:34.708Z,13.49
2019-03-04T18:45:41.755Z,13.40
2019-03-04T18:48:58.866Z,13.31
2019-03-04T18:51:35.998Z,13.31
2019-03-04T18:54:10.571Z,13.25
2019-03-04T18:56:42.421Z,13.25
2019-03-04T18:59:14.332Z,13.30
2019-03-04T19:01:47.587Z,13.27
2019-03-04T19:04:19.565Z,13.30
2019-03-04T19:06:51.603Z,13.20
2019-03-04T19:09:23.654Z,13.14
2019-03-04T19:11:55.519Z,13.14
2019-03-04T19:14:29.334Z,13.08
2019-03-04T19:17:02.497Z,13.10
2019-03-04T19:19:34.419Z,13.06
2019-03-04T19:22:07.968Z,13.05
2019-03-04T19:24:42.091Z,13.03
2019-03-04T19:27:14.074Z,12.96
2019-03-04T19:29:45.967Z,12.90
2019-03-04T19:32:17.825Z,12.85
2019-03-04T19:34:49.790Z,12.83
2019-03-04T19:37:21.848Z,12.83
2019-03-04T19:39:53.823Z,12.86
2019-03-04T19:42:25.665Z,12.84
2019-03-04T19:44:57.467Z,12.74
2019-03-04T19:47:29.591Z,12.79
2019-03-04T19:50:03.947Z,12.81
2019-03-04T19:52:36.997Z,12.69
2019-03-04T19:55:12.431Z,12.68
2019-03-04T19:57:44.000Z,12.73
2019-03-04T20:00:18.382Z,12.66
2019-03-04T20:02:50.529Z,12.68
2019-03-04T20:05:23.467Z,12.69
2019-03-04T20:07:55.421Z,12.71
2019-03-04T20:10:30.727Z,12.73
2019-03-04T20:13:04.875Z,12.71
2019-03-04T20:15:36.839Z,12.65
2019-03-04T20:18:08.691Z,12.66
2019-03-04T20:20:43.323Z,12.71
2019-03-04T20:23:15.208Z,12.66
2019-03-04T20:25:47.458Z,12.64
2019-03-04T20:28:19.977Z,12.72
2019-03-04T20:30:52.196Z,12.66
2019-03-04T20:33:24.069Z,12.65
2019-03-04T20:35:55.905Z,12.61
2019-03-04T20:38:32.289Z,12.64
2019-03-04T20:41:04.255Z,12.69
2019-03-04T20:43:36.366Z,12.65
2019-03-04T20:46:09.062Z,12.61
2019-03-04T20:48:41.263Z,12.59
2019-03-04T20:51:13.382Z,12.59
2019-03-04T20:53:46.333Z,12.71
2019-03-04T20:56:18.143Z,12.58
2019-03-04T20:58:51.382Z,12.55
2019-03-04T21:01:23.458Z,12.59
2019-03-04T21:03:55.681Z,12.46
2019-03-04T21:06:27.562Z,12.54
2019-03-04T21:09:00.357Z,12.55
2019-03-04T21:11:35.436Z,12.54
2019-03-04T21:14:07.376Z,12.40
2019-03-04T21:16:39.231Z,12.20
2019-03-04T21:19:11.857Z,12.09
2019-03-04T21:21:43.894Z,12.14
2019-03-04T21:24:15.913Z,12.14
2019-03-04T21:26:49.754Z,12.07
2019-03-04T21:29:52.743Z,12.13
2019-03-04T21:32:43.088Z,12.13
2019-03-04T21:36:02.933Z,12.12
2019-03-04T21:38:35.776Z,12.14
2019-03-04T21:41:38.828Z,12.05
2019-03-04T21:45:12.054Z,11.97
2019-03-04T21:47:53.117Z,11.90
2019-03-04T21:50:39.287Z,11.93
2019-03-04T21:53:37.009Z,11.95
2019-03-04T21:56:56.722Z,11.83
2019-03-04T21:59:28.689Z,11.99
2019-03-04T22:02:11.642Z,12.03
2019-03-04T22:04:43.586Z,12.00
2019-03-04T22:07:16.743Z,12.00
2019-03-04T22:09:48.879Z,12.06
2019-03-04T22:12:21.155Z,12.04
2019-03-04T22:14:54.275Z,11.91
2019-03-04T22:17:26.117Z,12.03
2019-03-04T22:19:58.025Z,11.92
2019-03-04T22:22:30.335Z,11.87
2019-03-04T22:25:02.549Z,11.89
2019-03-04T22:27:34.371Z,11.93
2019-03-04T22:30:08.708Z,11.82
2019-03-04T22:32:40.694Z,11.74
2019-03-04T22:35:16.887Z,11.64
2019-03-04T22:37:48.177Z,11.64
2019-03-04T22:40:21.145Z,11.71
2019-03-04T22:42:53.134Z,11.54
2019-03-04T22:45:28.147Z,11.52
2019-03-04T22:48:02.306Z,11.48
2019-03-04T22:50:34.205Z,11.48
2019-03-04T22:53:06.044Z,11.41
2019-03-04T22:55:38.508Z,11.42
2019-03-04T22:58:10.402Z,11.42
2019-03-04T23:01:49.311Z,11.44
2019-03-04T23:05:10.445Z,11.44
2019-03-04T23:07:49.445Z,11.41
2019-03-04T23:10:52.320Z,11.47
2019-03-04T23:13:58.852Z,11.46
2019-03-04T23:16:32.709Z,11.49
2019-03-04T23:19:05.327Z,11.39
2019-03-04T23:21:37.204Z,11.46
2019-03-04T23:24:09.073Z,11.49
2019-03-04T23:26:40.969Z,11.52
2019-03-04T23:29:14.438Z,11.50
2019-03-04T23:31:46.298Z,11.55
2019-03-04T23:34:18.455Z,11.58
2019-03-04T23:36:50.556Z,11.48
2019-03-04T23:39:22.821Z,11.48
2019-03-04T23:41:54.621Z,11.44
2019-03-04T23:44:26.809Z,11.41
2019-03-04T23:46:58.664Z,11.41
2019-03-04T23:49:31.915Z,11.39
2019-03-04T23:52:03.894Z,11.41
2019-03-04T23:54:40.390Z,11.41
2019-03-04T23:57:12.250Z,11.40
2019-03-04T23:59:44.353Z,11.41
